sensor_id;sensor_type;location;lat;lon;timestamp;P1;durP1;ratioP1;P2;durP2;ratioP2
64710;SDS011;51139;45.626;6.850;2023-02-20T00:00:37;1.42;;;1.13;;
64710;SDS011;51139;45.626;6.850;2023-02-20T00:03:04;1.17;;;0.70;;
64710;SDS011;51139;45.626;6.850;2023-02-20T00:05:30;1.48;;;0.70;;
64710;SDS011;51139;45.626;6.850;2023-02-20T00:07:56;2.25;;;0.63;;
64710;SDS011;51139;45.626;6.850;2023-02-20T00:10:21;2.15;;;1.23;;
64710;SDS011;51139;45.626;6.850;2023-02-20T00:12:48;1.70;;;0.80;;
64710;SDS011;51139;45.626;6.850;2023-02-20T00:15:14;1.15;;;0.60;;
64710;SDS011;51139;45.626;6.850;2023-02-20T00:17:43;1.85;;;0.82;;
64710;SDS011;51139;45.626;6.850;2023-02-20T00:20:12;2.35;;;0.90;;
64710;SDS011;51139;45.626;6.850;2023-02-20T00:22:39;2.75;;;0.70;;
64710;SDS011;51139;45.626;6.850;2023-02-20T00:25:04;2.50;;;1.00;;
64710;SDS011;51139;45.626;6.850;2023-02-20T00:27:30;1.20;;;0.70;;
64710;SDS011;51139;45.626;6.850;2023-02-20T00:29:55;1.58;;;0.50;;
64710;SDS011;51139;45.626;6.850;2023-02-20T00:32:21;2.75;;;0.88;;
64710;SDS011;51139;45.626;6.850;2023-02-20T00:34:46;1.67;;;0.70;;
64710;SDS011;51139;45.626;6.850;2023-02-20T00:37:11;2.08;;;0.80;;
64710;SDS011;51139;45.626;6.850;2023-02-20T00:39:37;1.42;;;0.50;;
64710;SDS011;51139;45.626;6.850;2023-02-20T00:42:02;1.08;;;0.80;;
64710;SDS011;51139;45.626;6.850;2023-02-20T00:44:28;1.75;;;0.77;;
64710;SDS011;51139;45.626;6.850;2023-02-20T00:46:53;1.40;;;0.80;;
64710;SDS011;51139;45.626;6.850;2023-02-20T00:49:18;2.17;;;0.85;;
64710;SDS011;51139;45.626;6.850;2023-02-20T00:51:44;1.48;;;0.68;;
64710;SDS011;51139;45.626;6.850;2023-02-20T00:54:09;0.90;;;0.60;;
64710;SDS011;51139;45.626;6.850;2023-02-20T00:56:35;1.75;;;0.75;;
64710;SDS011;51139;45.626;6.850;2023-02-20T00:59:00;1.33;;;0.70;;
64710;SDS011;51139;45.626;6.850;2023-02-20T01:01:26;1.52;;;0.65;;
64710;SDS011;51139;45.626;6.850;2023-02-20T01:03:51;1.52;;;0.70;;
64710;SDS011;51139;45.626;6.850;2023-02-20T01:06:17;2.33;;;0.70;;
64710;SDS011;51139;45.626;6.850;2023-02-20T01:08:42;1.70;;;0.60;;
64710;SDS011;51139;45.626;6.850;2023-02-20T01:11:08;1.65;;;0.60;;
64710;SDS011;51139;45.626;6.850;2023-02-20T01:13:33;1.30;;;0.70;;
64710;SDS011;51139;45.626;6.850;2023-02-20T01:15:58;0.82;;;0.40;;
64710;SDS011;51139;45.626;6.850;2023-02-20T01:18:24;1.90;;;0.50;;
64710;SDS011;51139;45.626;6.850;2023-02-20T01:20:49;1.50;;;0.50;;
64710;SDS011;51139;45.626;6.850;2023-02-20T01:23:15;1.50;;;0.50;;
64710;SDS011;51139;45.626;6.850;2023-02-20T01:25:40;1.30;;;0.60;;
64710;SDS011;51139;45.626;6.850;2023-02-20T01:28:06;1.13;;;0.50;;
64710;SDS011;51139;45.626;6.850;2023-02-20T01:30:31;1.23;;;0.70;;
64710;SDS011;51139;45.626;6.850;2023-02-20T01:32:57;2.13;;;0.70;;
64710;SDS011;51139;45.626;6.850;2023-02-20T01:35:22;1.10;;;0.50;;
64710;SDS011;51139;45.626;6.850;2023-02-20T01:37:47;3.05;;;0.70;;
64710;SDS011;51139;45.626;6.850;2023-02-20T01:40:14;1.27;;;0.60;;
64710;SDS011;51139;45.626;6.850;2023-02-20T01:42:41;1.58;;;0.65;;
64710;SDS011;51139;45.626;6.850;2023-02-20T01:45:14;1.00;;;0.52;;
64710;SDS011;51139;45.626;6.850;2023-02-20T01:47:40;1.02;;;0.50;;
64710;SDS011;51139;45.626;6.850;2023-02-20T01:50:06;1.25;;;0.63;;
64710;SDS011;51139;45.626;6.850;2023-02-20T01:52:32;2.65;;;0.75;;
64710;SDS011;51139;45.626;6.850;2023-02-20T01:55:01;2.90;;;1.10;;
64710;SDS011;51139;45.626;6.850;2023-02-20T01:57:31;2.20;;;1.23;;
64710;SDS011;51139;45.626;6.850;2023-02-20T02:00:03;4.53;;;1.00;;
64710;SDS011;51139;45.626;6.850;2023-02-20T02:02:33;2.00;;;0.80;;
64710;SDS011;51139;45.626;6.850;2023-02-20T02:05:04;0.95;;;0.65;;
64710;SDS011;51139;45.626;6.850;2023-02-20T02:07:32;1.33;;;0.50;;
64710;SDS011;51139;45.626;6.850;2023-02-20T02:09:58;0.82;;;0.40;;
64710;SDS011;51139;45.626;6.850;2023-02-20T02:12:26;2.53;;;0.50;;
64710;SDS011;51139;45.626;6.850;2023-02-20T02:14:52;1.17;;;0.57;;
64710;SDS011;51139;45.626;6.850;2023-02-20T02:23:03;0.95;;;0.50;;
64710;SDS011;51139;45.626;6.850;2023-02-20T02:31:44;0.93;;;0.40;;
64710;SDS011;51139;45.626;6.850;2023-02-20T02:40:13;2.15;;;0.50;;
64710;SDS011;51139;45.626;6.850;2023-02-20T02:45:29;1.13;;;0.60;;
64710;SDS011;51139;45.626;6.850;2023-02-20T02:48:20;2.63;;;0.60;;
64710;SDS011;51139;45.626;6.850;2023-02-20T02:51:12;1.15;;;0.50;;
64710;SDS011;51139;45.626;6.850;2023-02-20T02:54:02;1.00;;;0.40;;
64710;SDS011;51139;45.626;6.850;2023-02-20T02:56:33;0.95;;;0.38;;
64710;SDS011;51139;45.626;6.850;2023-02-20T02:59:04;0.60;;;0.40;;
64710;SDS011;51139;45.626;6.850;2023-02-20T03:01:33;1.80;;;0.40;;
64710;SDS011;51139;45.626;6.850;2023-02-20T03:04:03;1.38;;;0.60;;
64710;SDS011;51139;45.626;6.850;2023-02-20T03:09:07;1.42;;;0.70;;
64710;SDS011;51139;45.626;6.850;2023-02-20T03:11:36;2.78;;;0.85;;
64710;SDS011;51139;45.626;6.850;2023-02-20T03:14:05;1.48;;;0.60;;
64710;SDS011;51139;45.626;6.850;2023-02-20T03:16:56;0.40;;;0.32;;
64710;SDS011;51139;45.626;6.850;2023-02-20T03:19:29;2.13;;;0.60;;
64710;SDS011;51139;45.626;6.850;2023-02-20T03:21:59;1.00;;;0.50;;
64710;SDS011;51139;45.626;6.850;2023-02-20T03:24:29;0.77;;;0.50;;
64710;SDS011;51139;45.626;6.850;2023-02-20T03:27:17;1.90;;;0.90;;
64710;SDS011;51139;45.626;6.850;2023-02-20T03:29:43;2.42;;;0.63;;
64710;SDS011;51139;45.626;6.850;2023-02-20T03:32:11;1.55;;;0.82;;
64710;SDS011;51139;45.626;6.850;2023-02-20T03:34:57;1.73;;;0.50;;
64710;SDS011;51139;45.626;6.850;2023-02-20T03:37:43;0.93;;;0.50;;
64710;SDS011;51139;45.626;6.850;2023-02-20T03:40:31;1.05;;;0.40;;
64710;SDS011;51139;45.626;6.850;2023-02-20T03:43:16;2.05;;;0.38;;
64710;SDS011;51139;45.626;6.850;2023-02-20T03:46:00;1.50;;;0.40;;
64710;SDS011;51139;45.626;6.850;2023-02-20T03:51:07;0.73;;;0.43;;
64710;SDS011;51139;45.626;6.850;2023-02-20T03:53:53;0.95;;;0.52;;
64710;SDS011;51139;45.626;6.850;2023-02-20T03:56:36;0.52;;;0.40;;
64710;SDS011;51139;45.626;6.850;2023-02-20T03:59:07;2.05;;;0.60;;
64710;SDS011;51139;45.626;6.850;2023-02-20T04:01:40;4.53;;;0.73;;
64710;SDS011;51139;45.626;6.850;2023-02-20T04:04:11;0.68;;;0.40;;
64710;SDS011;51139;45.626;6.850;2023-02-20T04:06:40;1.10;;;0.50;;
64710;SDS011;51139;45.626;6.850;2023-02-20T04:09:13;1.55;;;0.60;;
64710;SDS011;51139;45.626;6.850;2023-02-20T04:12:05;0.77;;;0.50;;
64710;SDS011;51139;45.626;6.850;2023-02-20T04:14:50;1.20;;;0.57;;
64710;SDS011;51139;45.626;6.850;2023-02-20T04:17:20;0.77;;;0.50;;
64710;SDS011;51139;45.626;6.850;2023-02-20T04:19:49;2.45;;;0.60;;
64710;SDS011;51139;45.626;6.850;2023-02-20T04:22:17;1.50;;;0.63;;
64710;SDS011;51139;45.626;6.850;2023-02-20T04:27:18;0.80;;;0.30;;
64710;SDS011;51139;45.626;6.850;2023-02-20T04:29:45;0.85;;;0.50;;
64710;SDS011;51139;45.626;6.850;2023-02-20T04:32:10;0.60;;;0.47;;
64710;SDS011;51139;45.626;6.850;2023-02-20T04:34:36;3.60;;;0.73;;
64710;SDS011;51139;45.626;6.850;2023-02-20T04:37:19;1.92;;;0.50;;
64710;SDS011;51139;45.626;6.850;2023-02-20T04:39:45;5.40;;;2.28;;
64710;SDS011;51139;45.626;6.850;2023-02-20T04:42:11;3.13;;;2.10;;
64710;SDS011;51139;45.626;6.850;2023-02-20T04:44:37;2.00;;;0.90;;
64710;SDS011;51139;45.626;6.850;2023-02-20T04:47:05;0.85;;;0.45;;
64710;SDS011;51139;45.626;6.850;2023-02-20T04:49:32;0.95;;;0.70;;
64710;SDS011;51139;45.626;6.850;2023-02-20T04:51:58;1.02;;;0.50;;
64710;SDS011;51139;45.626;6.850;2023-02-20T04:54:24;0.70;;;0.40;;
64710;SDS011;51139;45.626;6.850;2023-02-20T04:56:49;1.10;;;0.38;;
64710;SDS011;51139;45.626;6.850;2023-02-20T04:59:16;2.00;;;0.82;;
64710;SDS011;51139;45.626;6.850;2023-02-20T05:01:41;0.80;;;0.50;;
64710;SDS011;51139;45.626;6.850;2023-02-20T05:04:12;0.60;;;0.50;;
64710;SDS011;51139;45.626;6.850;2023-02-20T05:06:46;3.63;;;0.70;;
64710;SDS011;51139;45.626;6.850;2023-02-20T05:09:16;1.35;;;0.80;;
64710;SDS011;51139;45.626;6.850;2023-02-20T05:11:42;1.77;;;0.60;;
64710;SDS011;51139;45.626;6.850;2023-02-20T05:14:08;1.02;;;0.55;;
64710;SDS011;51139;45.626;6.850;2023-02-20T05:16:33;1.17;;;0.52;;
64710;SDS011;51139;45.626;6.850;2023-02-20T05:19:00;0.30;;;0.28;;
64710;SDS011;51139;45.626;6.850;2023-02-20T05:21:26;0.90;;;0.40;;
64710;SDS011;51139;45.626;6.850;2023-02-20T05:24:10;1.23;;;0.60;;
64710;SDS011;51139;45.626;6.850;2023-02-20T05:26:36;1.92;;;0.50;;
64710;SDS011;51139;45.626;6.850;2023-02-20T05:29:01;1.13;;;0.40;;
64710;SDS011;51139;45.626;6.850;2023-02-20T05:31:27;5.20;;;2.20;;
64710;SDS011;51139;45.626;6.850;2023-02-20T05:33:52;0.75;;;0.50;;
64710;SDS011;51139;45.626;6.850;2023-02-20T05:36:18;3.53;;;0.60;;
64710;SDS011;51139;45.626;6.850;2023-02-20T05:38:43;1.25;;;0.50;;
64710;SDS011;51139;45.626;6.850;2023-02-20T05:41:15;1.60;;;0.60;;
64710;SDS011;51139;45.626;6.850;2023-02-20T05:43:42;1.65;;;0.60;;
64710;SDS011;51139;45.626;6.850;2023-02-20T05:46:07;2.65;;;0.75;;
64710;SDS011;51139;45.626;6.850;2023-02-20T05:48:32;2.85;;;0.68;;
64710;SDS011;51139;45.626;6.850;2023-02-20T05:50:58;9.57;;;1.02;;
64710;SDS011;51139;45.626;6.850;2023-02-20T05:53:26;3.25;;;0.70;;
64710;SDS011;51139;45.626;6.850;2023-02-20T05:55:52;1.52;;;0.45;;
64710;SDS011;51139;45.626;6.850;2023-02-20T05:58:18;2.25;;;0.75;;
64710;SDS011;51139;45.626;6.850;2023-02-20T06:00:43;1.50;;;0.50;;
64710;SDS011;51139;45.626;6.850;2023-02-20T06:03:08;4.93;;;0.80;;
64710;SDS011;51139;45.626;6.850;2023-02-20T06:05:34;2.28;;;0.98;;
64710;SDS011;51139;45.626;6.850;2023-02-20T06:07:59;2.75;;;0.60;;
64710;SDS011;51139;45.626;6.850;2023-02-20T06:10:25;1.13;;;0.60;;
64710;SDS011;51139;45.626;6.850;2023-02-20T06:12:50;1.33;;;0.68;;
64710;SDS011;51139;45.626;6.850;2023-02-20T06:15:16;1.85;;;0.60;;
64710;SDS011;51139;45.626;6.850;2023-02-20T06:17:41;1.30;;;0.45;;
64710;SDS011;51139;45.626;6.850;2023-02-20T06:20:07;1.38;;;0.60;;
64710;SDS011;51139;45.626;6.850;2023-02-20T06:22:32;1.60;;;0.70;;
64710;SDS011;51139;45.626;6.850;2023-02-20T06:24:58;3.05;;;0.57;;
64710;SDS011;51139;45.626;6.850;2023-02-20T06:27:23;7.97;;;1.13;;
64710;SDS011;51139;45.626;6.850;2023-02-20T06:29:49;3.22;;;0.60;;
64710;SDS011;51139;45.626;6.850;2023-02-20T06:32:14;2.28;;;0.70;;
64710;SDS011;51139;45.626;6.850;2023-02-20T06:34:42;3.83;;;0.90;;
64710;SDS011;51139;45.626;6.850;2023-02-20T06:37:08;5.50;;;0.93;;
64710;SDS011;51139;45.626;6.850;2023-02-20T06:39:34;5.85;;;1.00;;
64710;SDS011;51139;45.626;6.850;2023-02-20T06:41:59;5.32;;;0.80;;
64710;SDS011;51139;45.626;6.850;2023-02-20T06:44:25;7.38;;;0.95;;
64710;SDS011;51139;45.626;6.850;2023-02-20T06:46:50;5.57;;;2.08;;
64710;SDS011;51139;45.626;6.850;2023-02-20T06:49:16;2.75;;;0.98;;
64710;SDS011;51139;45.626;6.850;2023-02-20T06:51:41;5.68;;;0.68;;
64710;SDS011;51139;45.626;6.850;2023-02-20T06:54:07;5.45;;;0.80;;
64710;SDS011;51139;45.626;6.850;2023-02-20T06:56:35;4.55;;;0.80;;
64710;SDS011;51139;45.626;6.850;2023-02-20T06:59:02;3.45;;;0.70;;
64710;SDS011;51139;45.626;6.850;2023-02-20T07:01:30;2.38;;;0.60;;
64710;SDS011;51139;45.626;6.850;2023-02-20T07:04:03;4.05;;;0.60;;
64710;SDS011;51139;45.626;6.850;2023-02-20T07:06:29;1.95;;;0.70;;
64710;SDS011;51139;45.626;6.850;2023-02-20T07:08:54;6.43;;;1.30;;
64710;SDS011;51139;45.626;6.850;2023-02-20T07:11:20;6.00;;;1.00;;
64710;SDS011;51139;45.626;6.850;2023-02-20T07:13:47;9.77;;;1.00;;
64710;SDS011;51139;45.626;6.850;2023-02-20T07:16:12;6.18;;;1.50;;
64710;SDS011;51139;45.626;6.850;2023-02-20T07:18:38;8.60;;;1.20;;
64710;SDS011;51139;45.626;6.850;2023-02-20T07:21:03;7.18;;;1.17;;
64710;SDS011;51139;45.626;6.850;2023-02-20T07:23:29;8.35;;;1.00;;
64710;SDS011;51139;45.626;6.850;2023-02-20T07:25:55;5.30;;;1.17;;
64710;SDS011;51139;45.626;6.850;2023-02-20T07:28:20;10.25;;;1.40;;
64710;SDS011;51139;45.626;6.850;2023-02-20T07:30:46;10.82;;;1.17;;
64710;SDS011;51139;45.626;6.850;2023-02-20T07:33:17;9.35;;;1.25;;
64710;SDS011;51139;45.626;6.850;2023-02-20T07:35:44;11.45;;;1.63;;
64710;SDS011;51139;45.626;6.850;2023-02-20T07:38:10;9.82;;;2.70;;
64710;SDS011;51139;45.626;6.850;2023-02-20T07:40:36;10.38;;;1.75;;
64710;SDS011;51139;45.626;6.850;2023-02-20T07:43:01;7.68;;;1.00;;
64710;SDS011;51139;45.626;6.850;2023-02-20T07:45:26;9.40;;;1.25;;
64710;SDS011;51139;45.626;6.850;2023-02-20T07:47:52;12.05;;;1.60;;
64710;SDS011;51139;45.626;6.850;2023-02-20T07:50:17;9.02;;;1.00;;
64710;SDS011;51139;45.626;6.850;2023-02-20T07:52:43;5.80;;;0.90;;
64710;SDS011;51139;45.626;6.850;2023-02-20T07:55:12;22.95;;;2.60;;
64710;SDS011;51139;45.626;6.850;2023-02-20T07:57:39;8.52;;;1.17;;
64710;SDS011;51139;45.626;6.850;2023-02-20T08:00:04;2.97;;;0.63;;
64710;SDS011;51139;45.626;6.850;2023-02-20T08:02:31;1.85;;;0.40;;
64710;SDS011;51139;45.626;6.850;2023-02-20T08:04:56;0.90;;;0.60;;
64710;SDS011;51139;45.626;6.850;2023-02-20T08:07:21;0.90;;;0.40;;
64710;SDS011;51139;45.626;6.850;2023-02-20T08:09:47;0.43;;;0.40;;
64710;SDS011;51139;45.626;6.850;2023-02-20T08:12:12;1.35;;;0.40;;
64710;SDS011;51139;45.626;6.850;2023-02-20T08:14:38;2.75;;;0.52;;
64710;SDS011;51139;45.626;6.850;2023-02-20T08:17:04;0.68;;;0.40;;
64710;SDS011;51139;45.626;6.850;2023-02-20T08:19:29;1.95;;;0.40;;
64710;SDS011;51139;45.626;6.850;2023-02-20T08:21:54;2.00;;;0.50;;
64710;SDS011;51139;45.626;6.850;2023-02-20T08:24:20;1.15;;;0.30;;
64710;SDS011;51139;45.626;6.850;2023-02-20T08:26:46;1.20;;;0.40;;
64710;SDS011;51139;45.626;6.850;2023-02-20T08:29:13;1.10;;;0.45;;
64710;SDS011;51139;45.626;6.850;2023-02-20T08:31:40;0.95;;;0.40;;
64710;SDS011;51139;45.626;6.850;2023-02-20T08:34:05;0.50;;;0.35;;
64710;SDS011;51139;45.626;6.850;2023-02-20T08:36:31;0.43;;;0.38;;
64710;SDS011;51139;45.626;6.850;2023-02-20T08:38:57;0.90;;;0.40;;
64710;SDS011;51139;45.626;6.850;2023-02-20T08:41:24;1.10;;;0.40;;
64710;SDS011;51139;45.626;6.850;2023-02-20T08:43:50;1.15;;;0.60;;
64710;SDS011;51139;45.626;6.850;2023-02-20T08:46:15;1.15;;;0.60;;
64710;SDS011;51139;45.626;6.850;2023-02-20T08:48:41;1.05;;;0.50;;
64710;SDS011;51139;45.626;6.850;2023-02-20T08:51:07;0.77;;;0.38;;
64710;SDS011;51139;45.626;6.850;2023-02-20T08:53:33;1.33;;;0.60;;
64710;SDS011;51139;45.626;6.850;2023-02-20T08:55:59;1.00;;;0.50;;
64710;SDS011;51139;45.626;6.850;2023-02-20T08:58:25;0.90;;;0.38;;
64710;SDS011;51139;45.626;6.850;2023-02-20T09:00:50;1.95;;;0.73;;
64710;SDS011;51139;45.626;6.850;2023-02-20T09:03:17;0.88;;;0.50;;
64710;SDS011;51139;45.626;6.850;2023-02-20T09:05:42;1.30;;;0.57;;
64710;SDS011;51139;45.626;6.850;2023-02-20T09:08:08;1.27;;;0.63;;
64710;SDS011;51139;45.626;6.850;2023-02-20T09:10:34;1.25;;;0.70;;
64710;SDS011;51139;45.626;6.850;2023-02-20T09:13:00;1.88;;;0.73;;
64710;SDS011;51139;45.626;6.850;2023-02-20T09:15:26;1.67;;;0.70;;
64710;SDS011;51139;45.626;6.850;2023-02-20T09:17:51;1.55;;;0.60;;
64710;SDS011;51139;45.626;6.850;2023-02-20T09:20:18;1.00;;;0.68;;
64710;SDS011;51139;45.626;6.850;2023-02-20T09:22:46;1.10;;;0.60;;
64710;SDS011;51139;45.626;6.850;2023-02-20T09:25:12;1.65;;;0.50;;
64710;SDS011;51139;45.626;6.850;2023-02-20T09:27:38;1.40;;;0.80;;
64710;SDS011;51139;45.626;6.850;2023-02-20T09:30:04;3.80;;;0.80;;
64710;SDS011;51139;45.626;6.850;2023-02-20T09:32:30;1.58;;;0.77;;
64710;SDS011;51139;45.626;6.850;2023-02-20T09:34:56;2.45;;;1.15;;
64710;SDS011;51139;45.626;6.850;2023-02-20T09:37:22;1.50;;;0.77;;
64710;SDS011;51139;45.626;6.850;2023-02-20T09:39:47;1.30;;;0.80;;
64710;SDS011;51139;45.626;6.850;2023-02-20T09:42:26;1.88;;;1.25;;
64710;SDS011;51139;45.626;6.850;2023-02-20T09:45:10;2.08;;;0.90;;
64710;SDS011;51139;45.626;6.850;2023-02-20T09:50:21;1.83;;;0.70;;
64710;SDS011;51139;45.626;6.850;2023-02-20T09:52:59;2.78;;;0.90;;
64710;SDS011;51139;45.626;6.850;2023-02-20T09:55:33;2.55;;;1.00;;
64710;SDS011;51139;45.626;6.850;2023-02-20T09:58:00;1.98;;;0.95;;
64710;SDS011;51139;45.626;6.850;2023-02-20T10:00:32;2.55;;;0.93;;
64710;SDS011;51139;45.626;6.850;2023-02-20T10:03:15;1.10;;;0.80;;
64710;SDS011;51139;45.626;6.850;2023-02-20T10:05:58;1.73;;;0.60;;
64710;SDS011;51139;45.626;6.850;2023-02-20T10:08:25;2.92;;;0.80;;
64710;SDS011;51139;45.626;6.850;2023-02-20T10:10:51;1.33;;;0.70;;
64710;SDS011;51139;45.626;6.850;2023-02-20T10:18:53;1.70;;;0.82;;
64710;SDS011;51139;45.626;6.850;2023-02-20T10:21:35;1.52;;;0.70;;
64710;SDS011;51139;45.626;6.850;2023-02-20T10:27:13;2.78;;;0.75;;
64710;SDS011;51139;45.626;6.850;2023-02-20T10:30:02;2.03;;;0.70;;
64710;SDS011;51139;45.626;6.850;2023-02-20T10:35:56;1.63;;;0.70;;
64710;SDS011;51139;45.626;6.850;2023-02-20T10:38:25;1.80;;;0.70;;
64710;SDS011;51139;45.626;6.850;2023-02-20T10:40:57;3.88;;;0.73;;
64710;SDS011;51139;45.626;6.850;2023-02-20T10:46:08;1.67;;;0.70;;
64710;SDS011;51139;45.626;6.850;2023-02-20T10:48:39;1.75;;;0.60;;
64710;SDS011;51139;45.626;6.850;2023-02-20T10:53:45;4.68;;;0.70;;
64710;SDS011;51139;45.626;6.850;2023-02-20T10:56:35;1.60;;;0.65;;
64710;SDS011;51139;45.626;6.850;2023-02-20T11:02:02;1.40;;;0.73;;
64710;SDS011;51139;45.626;6.850;2023-02-20T11:04:34;1.95;;;0.85;;
64710;SDS011;51139;45.626;6.850;2023-02-20T11:07:09;1.80;;;0.50;;
64710;SDS011;51139;45.626;6.850;2023-02-20T11:09:38;0.93;;;0.60;;
64710;SDS011;51139;45.626;6.850;2023-02-20T11:12:05;1.15;;;0.60;;
64710;SDS011;51139;45.626;6.850;2023-02-20T11:14:32;1.42;;;0.55;;
64710;SDS011;51139;45.626;6.850;2023-02-20T11:17:06;1.95;;;0.60;;
64710;SDS011;51139;45.626;6.850;2023-02-20T11:22:10;0.88;;;0.50;;
64710;SDS011;51139;45.626;6.850;2023-02-20T11:24:37;2.35;;;0.50;;
64710;SDS011;51139;45.626;6.850;2023-02-20T11:29:34;1.00;;;0.50;;
64710;SDS011;51139;45.626;6.850;2023-02-20T11:37:44;1.90;;;0.50;;
64710;SDS011;51139;45.626;6.850;2023-02-20T11:40:32;1.58;;;0.65;;
64710;SDS011;51139;45.626;6.850;2023-02-20T11:45:45;0.90;;;0.47;;
64710;SDS011;51139;45.626;6.850;2023-02-20T11:48:12;1.70;;;0.55;;
64710;SDS011;51139;45.626;6.850;2023-02-20T11:50:47;1.98;;;0.45;;
64710;SDS011;51139;45.626;6.850;2023-02-20T11:53:17;1.02;;;0.47;;
64710;SDS011;51139;45.626;6.850;2023-02-20T11:55:48;0.43;;;0.38;;
64710;SDS011;51139;45.626;6.850;2023-02-20T11:58:24;2.90;;;0.60;;
64710;SDS011;51139;45.626;6.850;2023-02-20T12:00:52;1.30;;;0.40;;
64710;SDS011;51139;45.626;6.850;2023-02-20T12:03:28;2.55;;;0.50;;
64710;SDS011;51139;45.626;6.850;2023-02-20T12:05:56;0.43;;;0.30;;
64710;SDS011;51139;45.626;6.850;2023-02-20T12:11:01;0.68;;;0.40;;
64710;SDS011;51139;45.626;6.850;2023-02-20T12:13:47;1.77;;;0.50;;
64710;SDS011;51139;45.626;6.850;2023-02-20T12:16:21;1.15;;;0.40;;
64710;SDS011;51139;45.626;6.850;2023-02-20T12:36:09;1.63;;;0.60;;
64710;SDS011;51139;45.626;6.850;2023-02-20T12:38:45;2.17;;;0.50;;
64710;SDS011;51139;45.626;6.850;2023-02-20T12:49:50;0.98;;;0.50;;
64710;SDS011;51139;45.626;6.850;2023-02-20T12:55:11;1.90;;;0.50;;
64710;SDS011;51139;45.626;6.850;2023-02-20T13:00:32;1.92;;;0.45;;
64710;SDS011;51139;45.626;6.850;2023-02-20T13:03:07;2.08;;;0.40;;
64710;SDS011;51139;45.626;6.850;2023-02-20T13:05:40;1.60;;;0.50;;
64710;SDS011;51139;45.626;6.850;2023-02-20T13:13:19;1.42;;;0.50;;
64710;SDS011;51139;45.626;6.850;2023-02-20T13:16:08;1.17;;;0.40;;
64710;SDS011;51139;45.626;6.850;2023-02-20T13:18:46;1.80;;;0.30;;
64710;SDS011;51139;45.626;6.850;2023-02-20T13:21:16;2.47;;;0.50;;
64710;SDS011;51139;45.626;6.850;2023-02-20T13:23:46;1.50;;;0.52;;
64710;SDS011;51139;45.626;6.850;2023-02-20T13:31:53;2.40;;;0.50;;
64710;SDS011;51139;45.626;6.850;2023-02-20T13:36:46;1.88;;;0.60;;
64710;SDS011;51139;45.626;6.850;2023-02-20T13:39:29;0.90;;;0.32;;
64710;SDS011;51139;45.626;6.850;2023-02-20T13:42:00;2.65;;;0.68;;
64710;SDS011;51139;45.626;6.850;2023-02-20T13:44:39;2.67;;;0.65;;
64710;SDS011;51139;45.626;6.850;2023-02-20T13:57:41;0.82;;;0.40;;
64710;SDS011;51139;45.626;6.850;2023-02-20T14:02:45;0.73;;;0.43;;
64710;SDS011;51139;45.626;6.850;2023-02-20T14:05:18;1.52;;;0.52;;
64710;SDS011;51139;45.626;6.850;2023-02-20T14:07:46;1.33;;;0.60;;
64710;SDS011;51139;45.626;6.850;2023-02-20T14:10:22;3.28;;;0.60;;
64710;SDS011;51139;45.626;6.850;2023-02-20T14:13:04;1.15;;;0.50;;
64710;SDS011;51139;45.626;6.850;2023-02-20T14:15:49;0.73;;;0.60;;
64710;SDS011;51139;45.626;6.850;2023-02-20T14:20:50;1.08;;;0.40;;
64710;SDS011;51139;45.626;6.850;2023-02-20T14:23:39;3.80;;;0.60;;
64710;SDS011;51139;45.626;6.850;2023-02-20T14:26:16;1.10;;;0.40;;
64710;SDS011;51139;45.626;6.850;2023-02-20T14:28:45;1.17;;;0.50;;
64710;SDS011;51139;45.626;6.850;2023-02-20T14:31:23;1.73;;;0.60;;
64710;SDS011;51139;45.626;6.850;2023-02-20T14:33:51;1.00;;;0.40;;
64710;SDS011;51139;45.626;6.850;2023-02-20T14:41:30;0.85;;;0.47;;
64710;SDS011;51139;45.626;6.850;2023-02-20T14:43:57;1.92;;;0.50;;
64710;SDS011;51139;45.626;6.850;2023-02-20T14:46:32;0.95;;;0.70;;
64710;SDS011;51139;45.626;6.850;2023-02-20T14:49:10;1.48;;;0.80;;
64710;SDS011;51139;45.626;6.850;2023-02-20T14:51:39;2.80;;;0.70;;
64710;SDS011;51139;45.626;6.850;2023-02-20T14:56:39;1.27;;;0.50;;
64710;SDS011;51139;45.626;6.850;2023-02-20T14:59:19;2.28;;;0.70;;
64710;SDS011;51139;45.626;6.850;2023-02-20T15:01:47;2.30;;;0.75;;
64710;SDS011;51139;45.626;6.850;2023-02-20T15:04:13;2.50;;;0.60;;
64710;SDS011;51139;45.626;6.850;2023-02-20T15:06:42;1.85;;;0.50;;
64710;SDS011;51139;45.626;6.850;2023-02-20T15:09:10;1.60;;;0.70;;
64710;SDS011;51139;45.626;6.850;2023-02-20T15:11:44;2.17;;;0.70;;
64710;SDS011;51139;45.626;6.850;2023-02-20T15:14:19;1.75;;;0.73;;
64710;SDS011;51139;45.626;6.850;2023-02-20T15:16:47;2.53;;;0.60;;
64710;SDS011;51139;45.626;6.850;2023-02-20T15:19:19;0.90;;;0.70;;
64710;SDS011;51139;45.626;6.850;2023-02-20T15:21:54;2.90;;;0.90;;
64710;SDS011;51139;45.626;6.850;2023-02-20T15:26:49;1.20;;;0.63;;
64710;SDS011;51139;45.626;6.850;2023-02-20T15:29:23;1.60;;;0.80;;
64710;SDS011;51139;45.626;6.850;2023-02-20T15:34:24;2.75;;;0.90;;
64710;SDS011;51139;45.626;6.850;2023-02-20T15:36:51;1.98;;;0.70;;
64710;SDS011;51139;45.626;6.850;2023-02-20T15:39:18;2.70;;;0.80;;
64710;SDS011;51139;45.626;6.850;2023-02-20T15:41:44;3.30;;;1.08;;
64710;SDS011;51139;45.626;6.850;2023-02-20T15:44:10;2.45;;;0.90;;
64710;SDS011;51139;45.626;6.850;2023-02-20T15:46:36;3.22;;;1.30;;
64710;SDS011;51139;45.626;6.850;2023-02-20T15:49:02;3.10;;;0.80;;
64710;SDS011;51139;45.626;6.850;2023-02-20T15:51:28;3.05;;;1.00;;
64710;SDS011;51139;45.626;6.850;2023-02-20T15:53:56;1.75;;;1.00;;
64710;SDS011;51139;45.626;6.850;2023-02-20T15:56:23;2.00;;;1.10;;
64710;SDS011;51139;45.626;6.850;2023-02-20T15:58:51;1.52;;;0.90;;
64710;SDS011;51139;45.626;6.850;2023-02-20T16:01:16;1.13;;;0.82;;
64710;SDS011;51139;45.626;6.850;2023-02-20T16:03:42;4.13;;;0.85;;
64710;SDS011;51139;45.626;6.850;2023-02-20T16:06:08;2.03;;;0.80;;
64710;SDS011;51139;45.626;6.850;2023-02-20T16:08:33;5.50;;;1.10;;
64710;SDS011;51139;45.626;6.850;2023-02-20T16:10:59;1.98;;;0.90;;
64710;SDS011;51139;45.626;6.850;2023-02-20T16:16:13;3.88;;;1.17;;
64710;SDS011;51139;45.626;6.850;2023-02-20T16:18:42;4.43;;;1.07;;
64710;SDS011;51139;45.626;6.850;2023-02-20T16:21:09;2.83;;;1.05;;
64710;SDS011;51139;45.626;6.850;2023-02-20T16:23:36;2.55;;;0.93;;
64710;SDS011;51139;45.626;6.850;2023-02-20T16:26:04;2.88;;;1.10;;
64710;SDS011;51139;45.626;6.850;2023-02-20T16:28:31;2.30;;;1.00;;
64710;SDS011;51139;45.626;6.850;2023-02-20T16:30:56;5.40;;;1.08;;
64710;SDS011;51139;45.626;6.850;2023-02-20T16:33:22;4.38;;;1.27;;
64710;SDS011;51139;45.626;6.850;2023-02-20T16:35:48;4.50;;;1.10;;
64710;SDS011;51139;45.626;6.850;2023-02-20T16:38:15;2.58;;;1.00;;
64710;SDS011;51139;45.626;6.850;2023-02-20T16:40:40;2.80;;;1.15;;
64710;SDS011;51139;45.626;6.850;2023-02-20T16:43:06;2.33;;;1.05;;
64710;SDS011;51139;45.626;6.850;2023-02-20T16:45:32;3.33;;;1.30;;
64710;SDS011;51139;45.626;6.850;2023-02-20T16:48:00;2.00;;;1.20;;
64710;SDS011;51139;45.626;6.850;2023-02-20T16:50:26;4.53;;;1.35;;
64710;SDS011;51139;45.626;6.850;2023-02-20T16:52:54;1.77;;;1.08;;
64710;SDS011;51139;45.626;6.850;2023-02-20T16:57:52;1.50;;;0.98;;
64710;SDS011;51139;45.626;6.850;2023-02-20T17:00:20;3.45;;;1.10;;
64710;SDS011;51139;45.626;6.850;2023-02-20T17:02:49;5.30;;;1.10;;
64710;SDS011;51139;45.626;6.850;2023-02-20T17:05:14;2.85;;;0.90;;
64710;SDS011;51139;45.626;6.850;2023-02-20T17:07:42;3.67;;;1.17;;
64710;SDS011;51139;45.626;6.850;2023-02-20T17:10:07;3.63;;;1.00;;
64710;SDS011;51139;45.626;6.850;2023-02-20T17:12:33;4.15;;;1.00;;
64710;SDS011;51139;45.626;6.850;2023-02-20T17:14:59;8.75;;;1.42;;
64710;SDS011;51139;45.626;6.850;2023-02-20T17:17:25;4.40;;;1.27;;
64710;SDS011;51139;45.626;6.850;2023-02-20T17:19:51;10.27;;;1.70;;
64710;SDS011;51139;45.626;6.850;2023-02-20T17:22:19;12.25;;;2.83;;
64710;SDS011;51139;45.626;6.850;2023-02-20T17:24:45;9.35;;;1.48;;